createdAt,value
2017-09-19T00:00:00.860Z,24.83
2017-09-19T00:02:35.380Z,25.35
2017-09-19T00:05:09.803Z,25.85
2017-09-19T00:07:44.215Z,28.48
2017-09-19T00:10:18.557Z,31.48
2017-09-19T00:12:53.747Z,26.30
2017-09-19T00:15:28.320Z,28.62
2017-09-19T00:18:02.817Z,28.50
2017-09-19T00:20:37.331Z,26.17
2017-09-19T00:23:11.835Z,27.02
2017-09-19T00:25:46.376Z,25.05
2017-09-19T00:28:20.727Z,27.15
2017-09-19T00:30:55.313Z,25.98
2017-09-19T00:33:29.659Z,29.65
2017-09-19T00:36:04.768Z,28.48
2017-09-19T00:38:39.159Z,29.00
2017-09-19T00:41:13.813Z,29.85
2017-09-19T00:43:48.343Z,28.12
2017-09-19T00:46:23.023Z,27.33
2017-09-19T00:48:57.503Z,28.55
2017-09-19T00:51:32.035Z,27.33
2017-09-19T00:54:06.524Z,31.27
2017-09-19T00:56:41.153Z,30.40
2017-09-19T00:59:15.657Z,31.55
2017-09-19T01:01:50.080Z,31.23
2017-09-19T01:04:24.592Z,31.65
2017-09-19T01:06:59.394Z,30.37
2017-09-19T01:09:33.860Z,30.75
2017-09-19T01:12:08.284Z,31.70
2017-09-19T01:14:43.067Z,30.52
2017-09-19T01:17:17.640Z,32.08
2017-09-19T01:19:52.012Z,32.53
2017-09-19T01:22:26.503Z,32.03
2017-09-19T01:25:00.975Z,33.95
2017-09-19T01:27:36.137Z,39.10
2017-09-19T01:30:10.484Z,33.35
2017-09-19T01:32:44.983Z,34.70
2017-09-19T01:35:19.515Z,34.45
2017-09-19T01:37:53.827Z,31.23
2017-09-19T01:40:28.124Z,33.55
2017-09-19T01:43:02.488Z,34.60
2017-09-19T01:45:37.116Z,33.38
2017-09-19T01:48:11.723Z,37.15
2017-09-19T01:50:46.215Z,38.50
2017-09-19T01:53:20.715Z,33.78
2017-09-19T01:55:55.189Z,38.67
2017-09-19T01:58:29.562Z,34.30
2017-09-19T02:01:04.771Z,34.30
2017-09-19T02:03:39.236Z,36.13
2017-09-19T02:06:13.820Z,35.13
2017-09-19T02:08:49.056Z,34.42
2017-09-19T02:11:24.325Z,31.77
2017-09-19T02:13:58.820Z,35.90
2017-09-19T02:16:33.673Z,31.58
2017-09-19T02:19:08.111Z,36.05
2017-09-19T02:21:42.595Z,34.35
2017-09-19T02:24:17.040Z,33.95
2017-09-19T02:26:52.171Z,32.40
2017-09-19T02:29:26.522Z,33.45
2017-09-19T02:32:00.981Z,33.58
2017-09-19T02:34:35.377Z,33.20
2017-09-19T02:37:10.712Z,36.05
2017-09-19T02:39:44.997Z,35.17
2017-09-19T02:42:19.495Z,37.97
2017-09-19T02:44:53.927Z,42.13
2017-09-19T02:47:28.399Z,35.35
2017-09-19T02:50:02.754Z,31.05
2017-09-19T02:52:37.268Z,34.00
2017-09-19T02:55:11.735Z,33.88
2017-09-19T02:57:46.217Z,34.58
2017-09-19T03:00:20.508Z,36.88
2017-09-19T03:02:55.095Z,36.85
2017-09-19T03:05:29.571Z,37.05
2017-09-19T03:08:04.075Z,35.75
2017-09-19T03:10:38.508Z,36.35
2017-09-19T03:13:12.956Z,35.05
2017-09-19T03:15:47.464Z,38.05
2017-09-19T03:18:21.862Z,36.95
2017-09-19T03:20:56.314Z,39.75
2017-09-19T03:23:30.684Z,45.12
2017-09-19T03:26:05.271Z,41.55
2017-09-19T03:28:39.727Z,42.35
2017-09-19T03:31:14.361Z,36.63
2017-09-19T03:33:48.683Z,37.67
2017-09-19T03:36:23.284Z,35.33
2017-09-19T03:38:57.907Z,36.42
2017-09-19T03:41:32.382Z,37.15
2017-09-19T03:44:07.073Z,33.35
2017-09-19T03:46:42.209Z,34.85
2017-09-19T03:49:16.803Z,31.77
2017-09-19T03:51:51.263Z,39.60
2017-09-19T03:54:25.796Z,35.60
2017-09-19T03:57:00.212Z,36.70
2017-09-19T03:59:34.649Z,39.03
2017-09-19T04:02:09.139Z,35.60
2017-09-19T04:04:43.538Z,41.17
2017-09-19T04:07:18.080Z,36.85
2017-09-19T04:09:52.643Z,38.15
2017-09-19T04:12:27.168Z,44.10
2017-09-19T04:15:01.850Z,42.80
2017-09-19T04:20:40.453Z,42.58
2017-09-19T04:23:14.939Z,37.42
2017-09-19T04:25:49.679Z,38.97
2017-09-19T04:28:24.044Z,40.95
2017-09-19T04:30:58.644Z,39.50
2017-09-19T04:33:33.860Z,38.55
2017-09-19T04:36:08.195Z,40.25
2017-09-19T04:38:42.663Z,36.60
2017-09-19T04:41:17.907Z,36.25
2017-09-19T04:43:52.311Z,35.88
2017-09-19T04:46:26.761Z,40.75
2017-09-19T04:49:02.179Z,37.78
2017-09-19T04:51:36.679Z,35.92
2017-09-19T04:54:11.079Z,37.60
2017-09-19T04:56:45.441Z,37.88
2017-09-19T04:59:20.123Z,37.05
2017-09-19T05:01:54.467Z,42.00
2017-09-19T05:04:28.924Z,39.72
2017-09-19T05:07:03.307Z,40.03
2017-09-19T05:09:37.627Z,35.28
2017-09-19T05:12:12.074Z,33.50
2017-09-19T05:14:46.410Z,35.78
2017-09-19T05:17:21.120Z,38.67
2017-09-19T05:19:55.581Z,35.60
2017-09-19T05:22:30.265Z,42.20
2017-09-19T05:25:04.759Z,38.13
2017-09-19T05:27:39.195Z,37.17
2017-09-19T05:30:13.729Z,39.80
2017-09-19T05:32:48.306Z,43.35
2017-09-19T05:35:22.673Z,40.40
2017-09-19T05:37:57.123Z,37.78
2017-09-19T05:40:31.452Z,43.42
2017-09-19T05:43:05.815Z,38.50
2017-09-19T05:45:40.288Z,39.28
2017-09-19T05:48:14.784Z,39.00
2017-09-19T05:50:49.075Z,42.95
2017-09-19T05:53:23.707Z,37.50
2017-09-19T05:55:58.129Z,40.58
2017-09-19T05:58:32.774Z,40.22
2017-09-19T06:01:07.216Z,39.03
2017-09-19T06:03:41.648Z,39.65
2017-09-19T06:06:16.140Z,35.55
2017-09-19T06:09:02.523Z,41.30
2017-09-19T06:11:37.010Z,40.20
2017-09-19T06:14:11.607Z,35.75
2017-09-19T06:16:46.039Z,42.35
2017-09-19T06:19:20.619Z,37.85
2017-09-19T06:21:54.971Z,37.20
2017-09-19T06:24:29.317Z,35.25
2017-09-19T06:27:03.835Z,34.28
2017-09-19T06:29:38.139Z,38.70
2017-09-19T06:32:12.712Z,36.70
2017-09-19T06:34:47.213Z,37.10
2017-09-19T06:37:21.719Z,42.15
2017-09-19T06:39:57.015Z,40.50
2017-09-19T06:42:32.299Z,38.33
2017-09-19T06:45:07.516Z,37.45
2017-09-19T06:47:42.551Z,36.30
2017-09-19T06:50:16.991Z,36.88
2017-09-19T06:52:51.409Z,39.92
2017-09-19T06:55:25.928Z,36.72
2017-09-19T06:58:00.343Z,34.40
2017-09-19T07:00:34.879Z,37.90
2017-09-19T07:03:09.285Z,33.65
2017-09-19T07:05:43.897Z,36.42
2017-09-19T07:08:18.357Z,32.13
2017-09-19T07:10:53.197Z,36.47
2017-09-19T07:13:27.713Z,32.30
2017-09-19T07:16:02.143Z,35.25
2017-09-19T07:18:36.417Z,37.05
2017-09-19T07:21:10.879Z,34.50
2017-09-19T07:23:45.705Z,36.10
2017-09-19T07:26:20.174Z,37.05
2017-09-19T07:28:54.539Z,34.60
2017-09-19T07:31:29.027Z,29.45
2017-09-19T07:34:03.453Z,35.03
2017-09-19T07:36:37.769Z,31.00
2017-09-19T07:39:12.951Z,33.67
2017-09-19T07:41:47.363Z,30.90
2017-09-19T07:44:21.844Z,29.63
2017-09-19T07:46:56.260Z,29.02
2017-09-19T07:49:31.615Z,30.42
2017-09-19T07:52:06.248Z,28.65
2017-09-19T07:54:40.755Z,28.08
2017-09-19T07:57:16.128Z,33.17
2017-09-19T07:59:50.615Z,27.02
2017-09-19T08:02:24.999Z,30.42
2017-09-19T08:04:59.336Z,28.25
2017-09-19T08:07:33.979Z,26.08
2017-09-19T08:10:09.212Z,26.35
2017-09-19T08:12:43.708Z,27.87
2017-09-19T08:15:18.227Z,30.85
2017-09-19T08:17:53.401Z,28.00
2017-09-19T08:20:28.681Z,25.52
2017-09-19T08:23:03.213Z,27.33
2017-09-19T08:25:37.658Z,24.12
2017-09-19T08:28:12.123Z,23.83
2017-09-19T08:30:46.599Z,22.05
2017-09-19T08:33:21.248Z,22.58
2017-09-19T08:35:55.675Z,21.73
2017-09-19T08:38:30.185Z,20.88
2017-09-19T08:41:05.505Z,20.25
2017-09-19T08:43:40.056Z,23.05
2017-09-19T08:46:14.531Z,20.98
2017-09-19T08:48:48.933Z,20.08
2017-09-19T08:51:23.281Z,18.20
2017-09-19T08:53:57.680Z,19.10
2017-09-19T08:56:33.012Z,19.77
2017-09-19T08:59:08.426Z,18.58
2017-09-19T09:01:42.916Z,19.80
2017-09-19T09:04:17.371Z,19.62
2017-09-19T09:06:51.784Z,21.12
2017-09-19T09:09:26.109Z,19.35
2017-09-19T09:12:00.592Z,20.30
2017-09-19T09:14:35.055Z,21.55
2017-09-19T09:17:09.527Z,19.67
2017-09-19T09:19:43.855Z,22.40
2017-09-19T09:22:18.265Z,18.67
2017-09-19T09:24:52.724Z,19.75
2017-09-19T09:27:27.252Z,18.00
2017-09-19T09:30:02.565Z,17.05
2017-09-19T09:32:36.911Z,18.95
2017-09-19T09:35:11.264Z,18.77
2017-09-19T09:37:45.661Z,19.12
2017-09-19T09:40:20.852Z,17.30
2017-09-19T09:42:55.197Z,17.50
2017-09-19T09:45:29.564Z,18.15
2017-09-19T09:48:03.941Z,16.65
2017-09-19T09:50:38.239Z,16.35
2017-09-19T09:53:12.633Z,17.45
2017-09-19T09:55:47.223Z,15.27
2017-09-19T09:58:21.581Z,15.60
2017-09-19T10:00:56.063Z,16.67
2017-09-19T10:03:30.657Z,15.23
2017-09-19T10:06:05.149Z,18.12
2017-09-19T10:08:40.015Z,18.15
2017-09-19T10:11:14.532Z,14.38
2017-09-19T10:13:49.019Z,15.82
2017-09-19T10:16:23.617Z,17.60
2017-09-19T10:18:58.400Z,14.07
2017-09-19T10:21:32.907Z,12.77
2017-09-19T10:24:07.243Z,11.50
2017-09-19T10:26:42.248Z,12.40
2017-09-19T10:29:17.501Z,9.83
2017-09-19T10:31:51.822Z,8.93
2017-09-19T10:34:26.204Z,9.63
2017-09-19T10:37:00.783Z,10.37
2017-09-19T10:39:35.111Z,10.20
2017-09-19T10:42:10.468Z,8.77
2017-09-19T10:44:45.867Z,9.17
2017-09-19T10:47:20.374Z,7.20
2017-09-19T10:49:55.679Z,8.00
2017-09-19T10:52:30.067Z,4.77
2017-09-19T10:55:04.540Z,4.80
2017-09-19T10:57:39.276Z,4.25
2017-09-19T11:00:14.399Z,4.30
2017-09-19T11:02:48.953Z,4.90
2017-09-19T11:05:24.150Z,5.30
2017-09-19T11:07:58.588Z,5.03
2017-09-19T11:10:32.919Z,5.23
2017-09-19T11:13:07.370Z,5.80
2017-09-19T11:15:41.952Z,5.30
2017-09-19T11:18:16.618Z,7.30
2017-09-19T11:20:51.072Z,8.17
2017-09-19T11:23:25.537Z,6.97
2017-09-19T11:26:00.057Z,5.93
2017-09-19T11:28:34.669Z,4.47
2017-09-19T11:31:09.201Z,5.62
2017-09-19T11:33:43.659Z,6.18
2017-09-19T11:36:18.171Z,5.10
2017-09-19T11:38:53.272Z,5.50
2017-09-19T11:41:27.671Z,6.75
2017-09-19T11:44:02.093Z,6.43
2017-09-19T11:46:36.548Z,6.40
2017-09-19T11:49:11.279Z,8.27
2017-09-19T11:51:45.672Z,8.23
2017-09-19T11:54:20.423Z,8.18
2017-09-19T11:56:54.875Z,7.80
2017-09-19T11:59:29.525Z,8.30
2017-09-19T12:02:04.064Z,7.03
2017-09-19T12:04:38.618Z,7.68
2017-09-19T12:07:12.992Z,9.48
2017-09-19T12:09:47.347Z,10.75
2017-09-19T12:12:21.850Z,8.60
2017-09-19T12:14:57.003Z,9.30
2017-09-19T12:17:31.421Z,9.20
2017-09-19T12:20:05.776Z,15.82
2017-09-19T12:22:40.117Z,9.75
2017-09-19T12:25:14.745Z,6.65
2017-09-19T12:27:49.975Z,6.53
2017-09-19T12:30:24.340Z,4.65
2017-09-19T12:32:58.776Z,4.15
2017-09-19T12:35:34.223Z,4.10
2017-09-19T12:38:09.387Z,4.00
2017-09-19T12:40:44.673Z,2.50
2017-09-19T12:43:19.904Z,3.05
2017-09-19T12:45:54.239Z,2.85
2017-09-19T12:48:28.735Z,4.50
2017-09-19T12:51:03.246Z,2.90
2017-09-19T12:53:37.763Z,3.12
2017-09-19T12:56:12.564Z,4.03
2017-09-19T12:58:46.847Z,4.05
2017-09-19T13:01:21.474Z,4.90
2017-09-19T13:03:55.968Z,5.20
2017-09-19T13:06:30.401Z,4.85
2017-09-19T13:09:04.892Z,6.60
2017-09-19T13:11:39.302Z,6.95
2017-09-19T13:14:13.759Z,5.75
2017-09-19T13:16:48.468Z,6.05
2017-09-19T13:19:22.868Z,4.93
2017-09-19T13:21:57.198Z,5.30
2017-09-19T13:24:33.412Z,4.50
2017-09-19T13:27:07.994Z,6.40
2017-09-19T13:29:42.485Z,5.20
2017-09-19T13:32:30.399Z,3.87
2017-09-19T13:35:05.475Z,3.72
2017-09-19T13:37:40.011Z,3.25
2017-09-19T13:40:14.356Z,3.83
2017-09-19T13:42:48.719Z,2.10
2017-09-19T13:45:23.033Z,2.58
2017-09-19T13:47:57.542Z,3.87
2017-09-19T13:50:33.874Z,2.35
2017-09-19T13:53:09.212Z,3.58
2017-09-19T13:55:43.757Z,2.30
2017-09-19T13:58:18.230Z,2.00
2017-09-19T14:00:52.740Z,2.10
2017-09-19T14:03:27.232Z,2.50
2017-09-19T14:06:02.555Z,2.22
2017-09-19T14:08:37.092Z,2.03
2017-09-19T14:11:11.645Z,2.58
2017-09-19T14:13:46.017Z,2.25
2017-09-19T14:16:20.364Z,1.77
2017-09-19T14:18:54.728Z,3.15
2017-09-19T14:21:29.199Z,2.90
2017-09-19T14:24:03.721Z,2.97
2017-09-19T14:26:38.881Z,4.00
2017-09-19T14:29:13.413Z,3.17
2017-09-19T14:31:47.725Z,3.33
2017-09-19T14:34:22.142Z,3.50
2017-09-19T14:36:56.567Z,4.35
2017-09-19T14:39:31.069Z,4.18
2017-09-19T14:42:05.560Z,3.67
2017-09-19T14:44:40.729Z,3.28
2017-09-19T14:47:15.232Z,5.12
2017-09-19T14:49:49.979Z,2.92
2017-09-19T14:52:24.488Z,2.20
2017-09-19T14:54:59.174Z,3.30
2017-09-19T14:57:33.685Z,3.35
2017-09-19T15:00:08.016Z,2.10
2017-09-19T15:02:42.496Z,4.37
2017-09-19T15:05:17.145Z,1.62
2017-09-19T15:07:52.329Z,2.17
2017-09-19T15:10:26.800Z,2.40
2017-09-19T15:13:01.450Z,2.72
2017-09-19T15:15:36.112Z,1.90
2017-09-19T15:18:10.471Z,2.35
2017-09-19T15:20:45.475Z,4.05
2017-09-19T15:23:19.804Z,3.58
2017-09-19T15:25:54.388Z,1.92
2017-09-19T15:28:29.052Z,5.37
2017-09-19T15:31:03.615Z,2.00
2017-09-19T15:33:38.922Z,2.60
2017-09-19T15:36:14.355Z,1.70
2017-09-19T15:38:48.711Z,3.83
2017-09-19T15:41:23.820Z,4.93
2017-09-19T15:47:01.767Z,1.50
2017-09-19T15:49:36.220Z,2.40
2017-09-19T15:52:10.791Z,1.87
2017-09-19T15:54:46.057Z,1.20
2017-09-19T15:57:20.520Z,3.50
2017-09-19T15:59:54.877Z,1.62
2017-09-19T16:02:29.372Z,2.25
2017-09-19T16:05:04.587Z,2.95
2017-09-19T16:07:39.178Z,2.75
2017-09-19T16:10:13.627Z,3.37
2017-09-19T16:12:47.972Z,3.62
2017-09-19T16:15:22.431Z,3.37
2017-09-19T16:17:57.420Z,2.00
2017-09-19T16:20:31.928Z,6.68
2017-09-19T16:23:06.481Z,2.53
2017-09-19T16:25:41.010Z,2.25
2017-09-19T16:28:15.523Z,3.80
2017-09-19T16:30:50.947Z,9.30
2017-09-19T16:33:27.307Z,11.00
2017-09-19T16:36:01.649Z,5.40
2017-09-19T16:38:36.907Z,3.03
2017-09-19T16:41:11.229Z,2.70
2017-09-19T16:43:46.326Z,4.90
2017-09-19T16:46:20.691Z,7.12
2017-09-19T16:48:55.351Z,6.03
2017-09-19T16:51:30.055Z,5.10
2017-09-19T16:54:04.505Z,4.47
2017-09-19T16:56:38.853Z,3.92
2017-09-19T16:59:13.454Z,4.00
2017-09-19T17:01:47.878Z,3.15
2017-09-19T17:04:22.397Z,1.58
2017-09-19T17:06:57.931Z,2.30
2017-09-19T17:09:33.181Z,2.47
2017-09-19T17:12:08.404Z,5.28
2017-09-19T17:14:42.955Z,5.35
2017-09-19T17:17:17.432Z,2.42
2017-09-19T17:19:52.316Z,4.90
2017-09-19T17:22:26.780Z,4.10
2017-09-19T17:25:01.358Z,3.37
2017-09-19T17:27:36.551Z,7.43
2017-09-19T17:30:11.104Z,6.43
2017-09-19T17:32:46.458Z,15.38
2017-09-19T17:35:20.742Z,9.10
2017-09-19T17:37:55.040Z,4.70
2017-09-19T17:40:29.669Z,6.78
2017-09-19T17:43:04.511Z,1.58
2017-09-19T17:45:39.337Z,5.80
2017-09-19T17:48:13.791Z,10.43
2017-09-19T17:50:48.912Z,5.95
2017-09-19T17:53:23.646Z,5.78
2017-09-19T17:55:58.103Z,5.15
2017-09-19T17:58:32.680Z,9.55
2017-09-19T18:01:07.535Z,15.10
2017-09-19T18:03:42.039Z,6.15
2017-09-19T18:06:17.246Z,6.70
2017-09-19T18:08:52.039Z,7.47
2017-09-19T18:11:26.366Z,4.90
2017-09-19T18:14:00.948Z,2.97
2017-09-19T18:16:35.280Z,4.90
2017-09-19T18:19:10.013Z,3.53
2017-09-19T18:21:44.485Z,4.43
2017-09-19T18:24:19.111Z,6.07
2017-09-19T18:26:54.517Z,4.18
2017-09-19T18:29:29.213Z,5.03
2017-09-19T18:32:03.603Z,3.45
2017-09-19T18:34:38.715Z,5.07
2017-09-19T18:37:13.469Z,3.05
2017-09-19T18:39:48.117Z,6.55
2017-09-19T18:42:22.596Z,4.43
2017-09-19T18:44:57.211Z,4.03
2017-09-19T18:47:31.690Z,4.62
2017-09-19T18:50:06.085Z,4.97
2017-09-19T18:52:40.406Z,5.95
2017-09-19T18:55:14.934Z,4.43
2017-09-19T18:57:49.341Z,6.35
2017-09-19T19:00:23.804Z,5.53
2017-09-19T19:02:58.241Z,10.02
2017-09-19T19:05:32.784Z,8.43
2017-09-19T19:08:07.119Z,10.93
2017-09-19T19:10:41.602Z,9.50
2017-09-19T19:13:16.003Z,7.25
2017-09-19T19:15:50.458Z,7.68
2017-09-19T19:18:25.813Z,5.00
2017-09-19T19:21:00.175Z,3.17
2017-09-19T19:23:35.398Z,6.18
2017-09-19T19:26:09.836Z,5.95
2017-09-19T19:28:44.362Z,3.00
2017-09-19T19:31:18.857Z,3.28
2017-09-19T19:33:53.170Z,7.60
2017-09-19T19:36:27.741Z,6.35
2017-09-19T19:39:02.345Z,8.13
2017-09-19T19:41:36.819Z,4.20
2017-09-19T19:44:11.259Z,7.28
2017-09-19T19:46:45.726Z,6.62
2017-09-19T19:49:21.750Z,4.93
2017-09-19T19:51:56.272Z,3.30
2017-09-19T19:54:30.673Z,3.75
2017-09-19T19:57:05.181Z,10.63
2017-09-19T19:59:39.597Z,6.35
2017-09-19T20:02:14.188Z,5.45
2017-09-19T20:04:48.784Z,2.87
2017-09-19T20:07:23.071Z,3.78
2017-09-19T20:09:57.591Z,6.80
2017-09-19T20:12:31.952Z,5.00
2017-09-19T20:15:06.385Z,4.62
2017-09-19T20:17:40.838Z,9.43
2017-09-19T20:20:19.594Z,3.40
2017-09-19T20:22:55.584Z,4.07
2017-09-19T20:25:29.940Z,4.53
2017-09-19T20:28:04.404Z,3.50
2017-09-19T20:30:41.613Z,3.05
2017-09-19T20:33:16.842Z,3.55
2017-09-19T20:35:51.590Z,2.97
2017-09-19T20:38:26.997Z,4.60
2017-09-19T20:41:02.563Z,4.55
2017-09-19T20:43:37.064Z,2.83
2017-09-19T20:46:11.484Z,5.00
2017-09-19T20:48:46.489Z,4.55
2017-09-19T20:51:21.004Z,3.67
2017-09-19T20:53:56.984Z,3.17
2017-09-19T20:56:32.155Z,2.83
2017-09-19T20:59:09.356Z,6.65
2017-09-19T21:01:43.840Z,3.85
2017-09-19T21:04:23.848Z,3.62
2017-09-19T21:07:04.023Z,6.50
2017-09-19T21:09:45.211Z,4.00
2017-09-19T21:12:25.318Z,3.33
2017-09-19T21:15:05.606Z,3.53
2017-09-19T21:17:45.745Z,2.95
2017-09-19T21:20:22.806Z,4.55
2017-09-19T21:22:57.124Z,6.97
2017-09-19T21:25:31.494Z,4.40
2017-09-19T21:28:06.167Z,6.53
2017-09-19T21:30:42.207Z,7.37
2017-09-19T21:33:18.478Z,3.95
2017-09-19T21:35:53.604Z,4.87
2017-09-19T21:38:28.037Z,4.37
2017-09-19T21:41:02.539Z,3.90
2017-09-19T21:43:37.800Z,4.43
2017-09-19T21:46:12.292Z,5.37
2017-09-19T21:48:46.727Z,8.02
2017-09-19T21:51:21.484Z,6.93
2017-09-19T21:53:55.816Z,3.95
2017-09-19T21:56:30.296Z,7.05
2017-09-19T21:59:04.700Z,3.78
2017-09-19T22:01:39.072Z,4.75
2017-09-19T22:04:13.475Z,4.25
2017-09-19T22:06:48.043Z,3.87
2017-09-19T22:09:22.607Z,4.45
2017-09-19T22:11:57.748Z,5.05
2017-09-19T22:14:32.270Z,5.53
2017-09-19T22:17:06.810Z,4.28
2017-09-19T22:19:41.298Z,6.65
2017-09-19T22:22:15.668Z,3.83
2017-09-19T22:24:50.155Z,10.50
2017-09-19T22:27:24.524Z,6.87
2017-09-19T22:29:59.813Z,4.80
2017-09-19T22:32:34.293Z,6.62
2017-09-19T22:35:08.983Z,10.57
2017-09-19T22:37:43.299Z,7.00
2017-09-19T22:40:17.938Z,4.87
2017-09-19T22:42:53.115Z,6.03
2017-09-19T22:45:27.476Z,7.32
2017-09-19T22:48:02.688Z,7.80
2017-09-19T22:50:37.209Z,8.52
2017-09-19T22:53:11.721Z,7.40
2017-09-19T22:55:46.135Z,10.57
2017-09-19T22:58:21.383Z,9.10
2017-09-19T23:00:55.899Z,11.48
2017-09-19T23:03:30.280Z,9.98
2017-09-19T23:06:04.867Z,8.65
2017-09-19T23:08:39.423Z,8.80
2017-09-19T23:11:13.891Z,11.93
2017-09-19T23:13:48.442Z,14.40
2017-09-19T23:16:22.842Z,15.93
2017-09-19T23:18:57.152Z,17.55
2017-09-19T23:21:31.587Z,11.98
2017-09-19T23:24:05.937Z,12.93
2017-09-19T23:26:40.425Z,9.93
2017-09-19T23:29:14.852Z,9.27
2017-09-19T23:31:49.229Z,12.37
2017-09-19T23:34:23.631Z,9.25
2017-09-19T23:36:58.102Z,8.48
2017-09-19T23:39:32.624Z,10.05
2017-09-19T23:42:06.984Z,10.68
2017-09-19T23:44:42.141Z,7.60
2017-09-19T23:47:16.603Z,7.85
2017-09-19T23:49:51.012Z,9.30
2017-09-19T23:52:25.644Z,11.90
2017-09-19T23:55:00.163Z,9.35
2017-09-19T23:57:34.907Z,7.90
